Patrick Air Force Base
KCOF : now visible

Airfield :











YOU CAN JOIN US ON...

 
LOGIN :

Register | Disclaimer

   EN    FR    IT 

 









Legend :    VFR   Marginal VFR   IFR   Intensive IFR   Very Intensive IFR
Visi :
Ceiling :
>= 8 km
>= 3000ft
5 to 8 km
1000 to 3000 ft
1500m to 5 km
500 to 1000 ft
800 to 1500m
200 to 500 ft
< 800m
< 200 ft
Symbols :   Thunderstorms  Fog  Heavy snow  Heavy precipitations  Wind > 20 kt






- Airport Elevation : 8 ft


KCOF - Patrick Air Force Base

CURRENT METAR :
  • 280756Z AUTO 30012KT M M CLR 10/05 A3021 RMK AO2 SLP235 T00950051 RVRNO $

EXPIRED METARs :
  • 280656Z AUTO 29009KT M M CLR 09/06 A3021 RMK AO2 SLP235 T00940058 RVRNO $
  • 280556Z AUTO 29010KT M M CLR 10/05 A3022 RMK AO2 SLP238 T00980054 10148 20098 50003 RVRNO $

TAF TAF KCOF
Valid from the 28 at 03:00 until the 29 at 09:00 UTC


280300Z 2803/2909 31010G15KT 9999 SKC QNH3020INS
BECMG 2818/2819 28012G18KT 9999 FEW050 QNH3019INS TX15/2821Z TN08/2812Z LAST NO AMDS AFT 2805 NEXT 2811



MET'MAP, your aeronautical weather chart ! - Copyright ORBIFLY December 2007 - Disclaimer

ORBIFLY MET'MAP TEAM :

Programming & Development : Alexandra Zaïnal
Concept & original design : Baudouin d'Aumeries
Assistance for programming : Marc-Olivier Méhu
Technical & hardware support : Manuel Goepfert

Contact : metmap@orbifly.com




SOURCES & CREDITS :

   NOAA       Earth
Advisory